Weldon Spring, Missouri
Current Conditions -  °F | °C
As of 9:51 PM on Wednesday 17 Dec 2014 (Local Time) from KSTL Reporting Station
Overcast Overcast  
Wind Chill: 26°   Ceiling: 14000
Heat Index: 32°   Visibility: 9mi
Dew Point: 24°   Wind: 6mph
Humidity: 73%   Direction: 40°NE
Pressure: 30.31"   Gusts: NA
Location:  38.7167°N, 90.6411°W
Report Text: KSTL 180351Z 04005KT 9SM SCT095 BKN140 OVC200 00/M04 A3031 RMK AO2 SLP273 T00001044
Loading
Personal Weather Stations






























Interactive Weather Map New forecast layout! Learn more

10-Day Weather Forecast

Advertisements
Track Severe Weather on mobile